sensor_id;sensor_type;location;lat;lon;timestamp;P1;durP1;ratioP1;P2;durP2;ratioP2
3271;SDS011;1648;50.022;8.424;2024-03-17T00:02:55;13.73;;;8.57;;
3271;SDS011;1648;50.022;8.424;2024-03-17T00:17:57;10.33;;;6.67;;
3271;SDS011;1648;50.022;8.424;2024-03-17T00:33:00;14.43;;;6.60;;
3271;SDS011;1648;50.022;8.424;2024-03-17T00:48:04;10.17;;;6.60;;
3271;SDS011;1648;50.022;8.424;2024-03-17T01:03:07;13.57;;;5.30;;
3271;SDS011;1648;50.022;8.424;2024-03-17T01:18:10;9.90;;;6.73;;
3271;SDS011;1648;50.022;8.424;2024-03-17T01:33:14;11.90;;;7.17;;
3271;SDS011;1648;50.022;8.424;2024-03-17T01:48:16;14.57;;;7.50;;
3271;SDS011;1648;50.022;8.424;2024-03-17T02:03:20;10.53;;;6.87;;
3271;SDS011;1648;50.022;8.424;2024-03-17T02:18:22;9.73;;;5.23;;
3271;SDS011;1648;50.022;8.424;2024-03-17T02:33:25;11.00;;;5.40;;
3271;SDS011;1648;50.022;8.424;2024-03-17T02:48:29;7.97;;;5.27;;
3271;SDS011;1648;50.022;8.424;2024-03-17T03:03:31;9.90;;;4.90;;
3271;SDS011;1648;50.022;8.424;2024-03-17T03:18:34;5.20;;;3.93;;
3271;SDS011;1648;50.022;8.424;2024-03-17T03:33:36;7.33;;;5.20;;
3271;SDS011;1648;50.022;8.424;2024-03-17T03:48:39;9.73;;;3.77;;
3271;SDS011;1648;50.022;8.424;2024-03-17T04:03:42;6.20;;;4.57;;
3271;SDS011;1648;50.022;8.424;2024-03-17T04:18:44;15.83;;;4.93;;
3271;SDS011;1648;50.022;8.424;2024-03-17T04:33:46;6.90;;;4.23;;
3271;SDS011;1648;50.022;8.424;2024-03-17T04:48:48;6.73;;;4.00;;
3271;SDS011;1648;50.022;8.424;2024-03-17T05:03:52;11.20;;;5.03;;
3271;SDS011;1648;50.022;8.424;2024-03-17T05:18:54;7.10;;;4.90;;
3271;SDS011;1648;50.022;8.424;2024-03-17T05:33:57;10.00;;;6.37;;
3271;SDS011;1648;50.022;8.424;2024-03-17T05:48:59;7.70;;;4.00;;
3271;SDS011;1648;50.022;8.424;2024-03-17T06:04:01;7.20;;;4.60;;
3271;SDS011;1648;50.022;8.424;2024-03-17T06:19:04;6.40;;;4.67;;
3271;SDS011;1648;50.022;8.424;2024-03-17T06:34:06;10.37;;;4.80;;
3271;SDS011;1648;50.022;8.424;2024-03-17T06:49:09;7.27;;;5.50;;
3271;SDS011;1648;50.022;8.424;2024-03-17T07:04:13;10.07;;;6.00;;
3271;SDS011;1648;50.022;8.424;2024-03-17T07:19:16;8.87;;;5.50;;
3271;SDS011;1648;50.022;8.424;2024-03-17T07:34:19;12.87;;;6.70;;
3271;SDS011;1648;50.022;8.424;2024-03-17T07:49:21;13.13;;;7.30;;
3271;SDS011;1648;50.022;8.424;2024-03-17T08:04:24;8.60;;;5.70;;
3271;SDS011;1648;50.022;8.424;2024-03-17T08:19:26;5.80;;;4.27;;
3271;SDS011;1648;50.022;8.424;2024-03-17T08:34:29;11.00;;;4.77;;
3271;SDS011;1648;50.022;8.424;2024-03-17T08:49:32;7.70;;;4.70;;
3271;SDS011;1648;50.022;8.424;2024-03-17T09:04:34;6.07;;;4.50;;
3271;SDS011;1648;50.022;8.424;2024-03-17T10:53:23;7.33;;;4.67;;
3271;SDS011;1648;50.022;8.424;2024-03-17T11:08:26;8.03;;;5.57;;
3271;SDS011;1648;50.022;8.424;2024-03-17T11:23:32;7.50;;;4.90;;
3271;SDS011;1648;50.022;8.424;2024-03-17T11:54:01;6.73;;;4.77;;
3271;SDS011;1648;50.022;8.424;2024-03-17T12:09:13;9.27;;;4.70;;
3271;SDS011;1648;50.022;8.424;2024-03-17T12:24:20;9.43;;;5.53;;
3271;SDS011;1648;50.022;8.424;2024-03-17T12:39:24;14.93;;;7.43;;
3271;SDS011;1648;50.022;8.424;2024-03-17T12:54:27;9.73;;;5.33;;
3271;SDS011;1648;50.022;8.424;2024-03-17T13:09:30;7.43;;;5.50;;
3271;SDS011;1648;50.022;8.424;2024-03-17T13:24:33;13.50;;;6.30;;
3271;SDS011;1648;50.022;8.424;2024-03-17T13:39:35;13.97;;;7.03;;
3271;SDS011;1648;50.022;8.424;2024-03-17T13:54:39;11.27;;;7.03;;
3271;SDS011;1648;50.022;8.424;2024-03-17T14:09:41;10.53;;;6.33;;
3271;SDS011;1648;50.022;8.424;2024-03-17T14:24:45;17.20;;;8.07;;
3271;SDS011;1648;50.022;8.424;2024-03-17T14:39:48;14.13;;;7.50;;
3271;SDS011;1648;50.022;8.424;2024-03-17T14:54:51;14.80;;;7.60;;
3271;SDS011;1648;50.022;8.424;2024-03-17T15:09:53;12.20;;;6.57;;
3271;SDS011;1648;50.022;8.424;2024-03-17T15:24:58;7.73;;;5.50;;
3271;SDS011;1648;50.022;8.424;2024-03-17T15:55:36;11.90;;;6.77;;
3271;SDS011;1648;50.022;8.424;2024-03-17T16:10:55;9.93;;;6.30;;
3271;SDS011;1648;50.022;8.424;2024-03-17T16:25:59;11.70;;;6.70;;
3271;SDS011;1648;50.022;8.424;2024-03-17T16:41:01;9.80;;;6.07;;
3271;SDS011;1648;50.022;8.424;2024-03-17T16:56:06;12.33;;;7.00;;
3271;SDS011;1648;50.022;8.424;2024-03-17T17:11:09;12.40;;;7.43;;
3271;SDS011;1648;50.022;8.424;2024-03-17T17:26:21;15.30;;;7.70;;
3271;SDS011;1648;50.022;8.424;2024-03-17T17:41:28;11.40;;;7.37;;
3271;SDS011;1648;50.022;8.424;2024-03-17T17:56:32;16.80;;;8.80;;
3271;SDS011;1648;50.022;8.424;2024-03-17T18:11:35;17.50;;;8.33;;
3271;SDS011;1648;50.022;8.424;2024-03-17T18:26:38;12.70;;;8.43;;
3271;SDS011;1648;50.022;8.424;2024-03-17T18:41:41;19.47;;;8.93;;
3271;SDS011;1648;50.022;8.424;2024-03-17T18:56:43;20.93;;;9.10;;
3271;SDS011;1648;50.022;8.424;2024-03-17T19:11:47;13.37;;;7.70;;
3271;SDS011;1648;50.022;8.424;2024-03-17T19:26:49;16.37;;;9.27;;
3271;SDS011;1648;50.022;8.424;2024-03-17T19:41:51;14.07;;;7.93;;
3271;SDS011;1648;50.022;8.424;2024-03-17T19:56:54;17.20;;;9.27;;
3271;SDS011;1648;50.022;8.424;2024-03-17T20:11:56;15.03;;;9.00;;
3271;SDS011;1648;50.022;8.424;2024-03-17T20:26:59;17.53;;;11.00;;
3271;SDS011;1648;50.022;8.424;2024-03-17T20:42:02;16.40;;;9.30;;
3271;SDS011;1648;50.022;8.424;2024-03-17T20:57:04;16.80;;;9.90;;
3271;SDS011;1648;50.022;8.424;2024-03-17T21:12:07;20.60;;;9.47;;
3271;SDS011;1648;50.022;8.424;2024-03-17T21:27:10;15.33;;;8.33;;
3271;SDS011;1648;50.022;8.424;2024-03-17T21:42:13;15.77;;;9.23;;
3271;SDS011;1648;50.022;8.424;2024-03-17T21:57:15;16.43;;;8.43;;
3271;SDS011;1648;50.022;8.424;2024-03-17T22:12:17;16.97;;;7.63;;
3271;SDS011;1648;50.022;8.424;2024-03-17T22:27:19;12.20;;;7.80;;
3271;SDS011;1648;50.022;8.424;2024-03-17T22:42:21;14.40;;;8.80;;
3271;SDS011;1648;50.022;8.424;2024-03-17T22:57:24;17.67;;;8.40;;
3271;SDS011;1648;50.022;8.424;2024-03-17T23:12:26;16.57;;;8.50;;
3271;SDS011;1648;50.022;8.424;2024-03-17T23:27:28;15.23;;;8.50;;
3271;SDS011;1648;50.022;8.424;2024-03-17T23:42:32;14.40;;;8.13;;
3271;SDS011;1648;50.022;8.424;2024-03-17T23:57:34;16.60;;;9.53;;
